createdAt,value
2023-02-14T00:00:06.211Z,103064.44
2023-02-14T00:01:11.145Z,103067.16
2023-02-14T00:02:31.066Z,103074.16
2023-02-14T00:03:32.681Z,103068.06
2023-02-14T00:04:38.205Z,103065.41
2023-02-14T00:05:39.889Z,103068.97
2023-02-14T00:06:42.795Z,103072.53
2023-02-14T00:07:45.404Z,103071.69
2023-02-14T00:08:46.939Z,103074.38
2023-02-14T00:09:49.516Z,103077.00
2023-02-14T00:10:52.606Z,103072.63
2023-02-14T00:11:55.332Z,103066.50
2023-02-14T00:12:57.376Z,103073.56
2023-02-14T00:14:18.329Z,103069.19
2023-02-14T00:15:24.829Z,103061.25
2023-02-14T00:16:26.399Z,103058.72
2023-02-14T00:17:27.977Z,103064.91
2023-02-14T00:18:44.413Z,103064.91
2023-02-14T00:19:47.420Z,103049.09
2023-02-14T00:20:48.990Z,103065.88
2023-02-14T00:21:52.043Z,103064.13
2023-02-14T00:23:04.649Z,103064.19
2023-02-14T00:24:09.421Z,103058.03
2023-02-14T00:25:12.016Z,103065.09
2023-02-14T00:26:15.517Z,103051.88
2023-02-14T00:27:18.084Z,103058.03
2023-02-14T00:28:19.646Z,103059.88
2023-02-14T00:29:24.605Z,103059.03
2023-02-14T00:30:26.365Z,103060.72
2023-02-14T00:31:32.981Z,103063.44
2023-02-14T00:32:35.783Z,103056.41
2023-02-14T00:33:37.535Z,103056.47
2023-02-14T00:34:42.161Z,103064.41
2023-02-14T00:35:44.260Z,103060.91
2023-02-14T00:36:52.413Z,103056.50
2023-02-14T00:37:54.409Z,103055.66
2023-02-14T00:38:56.958Z,103060.94
2023-02-14T00:40:00.054Z,103061.00
2023-02-14T00:41:02.077Z,103061.88
2023-02-14T00:42:06.082Z,103061.00
2023-02-14T00:43:07.620Z,103058.34
2023-02-14T00:44:13.387Z,103057.50
2023-02-14T00:45:18.793Z,103060.13
2023-02-14T00:46:23.508Z,103061.03
2023-02-14T00:47:26.769Z,103054.88
2023-02-14T00:48:28.361Z,103059.28
2023-02-14T00:49:30.854Z,103058.47
2023-02-14T00:50:32.465Z,103058.50
2023-02-14T00:51:34.939Z,103061.13
2023-02-14T00:52:36.443Z,103060.25
2023-02-14T00:53:39.994Z,103067.31
2023-02-14T00:54:44.807Z,103058.56
2023-02-14T00:55:46.518Z,103058.56
2023-02-14T00:56:49.030Z,103057.69
2023-02-14T00:57:51.870Z,103055.94
2023-02-14T00:58:54.382Z,103055.06
2023-02-14T00:59:55.914Z,103065.66
2023-02-14T01:00:59.254Z,103063.06
2023-02-14T01:02:01.067Z,103056.94
2023-02-14T01:03:03.645Z,103062.22
2023-02-14T01:04:05.626Z,103057.81
2023-02-14T01:05:08.661Z,103058.72
2023-02-14T01:06:10.529Z,103063.19
2023-02-14T01:07:13.476Z,103061.44
2023-02-14T01:08:15.788Z,103064.13
2023-02-14T01:09:18.615Z,103067.63
2023-02-14T01:10:20.291Z,103065.09
2023-02-14T01:11:24.687Z,103065.09
2023-02-14T01:12:26.274Z,103064.22
2023-02-14T01:13:30.215Z,103066.00
2023-02-14T01:14:32.706Z,103064.28
2023-02-14T01:15:39.574Z,103062.50
2023-02-14T01:16:42.142Z,103064.28
2023-02-14T01:17:43.841Z,103067.91
2023-02-14T01:18:56.972Z,103064.38
2023-02-14T01:19:58.924Z,103061.75
2023-02-14T01:21:11.245Z,103070.56
2023-02-14T01:22:13.751Z,103064.41
2023-02-14T01:23:15.309Z,103055.69
2023-02-14T01:24:17.967Z,103060.09
2023-02-14T01:25:19.735Z,103063.63
2023-02-14T01:26:23.272Z,103055.69
2023-02-14T01:27:24.839Z,103058.34
2023-02-14T01:28:27.692Z,103058.38
2023-02-14T01:29:30.566Z,103063.66
2023-02-14T01:30:33.357Z,103059.28
2023-02-14T01:31:35.789Z,103060.19
2023-02-14T01:32:38.402Z,103054.91
2023-02-14T01:33:41.492Z,103061.06
2023-02-14T01:34:43.959Z,103054.94
2023-02-14T01:35:45.480Z,103064.63
2023-02-14T01:36:48.004Z,103056.72
2023-02-14T01:37:51.452Z,103055.00
2023-02-14T01:38:56.505Z,103060.31
2023-02-14T01:39:58.024Z,103057.69
2023-02-14T01:41:00.968Z,103056.81
2023-02-14T01:42:03.644Z,103054.25
2023-02-14T01:43:05.741Z,103055.13
2023-02-14T01:44:29.322Z,103054.28
2023-02-14T01:45:32.465Z,103046.34
2023-02-14T01:46:36.916Z,103044.66
2023-02-14T01:47:41.762Z,103042.00
2023-02-14T01:48:44.360Z,103038.53
2023-02-14T01:49:49.506Z,103043.81
2023-02-14T01:50:54.840Z,103040.25
2023-02-14T01:52:03.986Z,103045.59
2023-02-14T01:53:10.578Z,103045.66
2023-02-14T01:54:14.166Z,103035.97
2023-02-14T01:55:20.667Z,103043.91
2023-02-14T01:56:30.066Z,103032.50
2023-02-14T01:57:36.275Z,103043.94
2023-02-14T01:58:44.909Z,103034.31
2023-02-14T01:59:51.733Z,103037.00
2023-02-14T02:00:57.619Z,103035.25
2023-02-14T02:02:00.723Z,103037.91
2023-02-14T02:03:05.013Z,103041.44
2023-02-14T02:04:11.141Z,103036.19
2023-02-14T02:05:14.436Z,103039.69
2023-02-14T02:06:23.151Z,103037.13
2023-02-14T02:07:26.672Z,103035.38
2023-02-14T02:08:29.389Z,103035.38
2023-02-14T02:09:34.059Z,103036.28
2023-02-14T02:10:36.535Z,103034.50
2023-02-14T02:11:39.254Z,103035.44
2023-02-14T02:12:42.446Z,103040.72
2023-02-14T02:13:49.551Z,103031.97
2023-02-14T02:14:58.122Z,103033.72
2023-02-14T02:16:13.870Z,103024.03
2023-02-14T02:17:26.173Z,103030.22
2023-02-14T02:18:41.851Z,103024.94
2023-02-14T02:20:03.950Z,103025.88
2023-02-14T02:21:37.550Z,103023.25
2023-02-14T02:23:17.221Z,103022.41
2023-02-14T02:24:29.457Z,103019.81
2023-02-14T02:25:46.840Z,103021.63
2023-02-14T02:27:15.051Z,103028.66
2023-02-14T02:29:06.785Z,103025.19
2023-02-14T02:30:41.634Z,103022.59
2023-02-14T02:32:10.062Z,103020.88
2023-02-14T02:33:42.902Z,103027.06
2023-02-14T02:35:13.125Z,103020.03
2023-02-14T02:36:43.123Z,103020.94
2023-02-14T02:37:55.568Z,103023.66
2023-02-14T02:39:11.121Z,103019.25
2023-02-14T02:40:29.710Z,103018.47
2023-02-14T02:41:39.678Z,103026.31
2023-02-14T02:42:50.564Z,103021.03
2023-02-14T02:43:57.708Z,103011.41
2023-02-14T02:45:08.364Z,103012.31
2023-02-14T02:46:36.099Z,103013.19
2023-02-14T02:47:45.532Z,103017.59
2023-02-14T02:48:57.087Z,103014.09
2023-02-14T02:50:23.760Z,103013.22
2023-02-14T02:51:55.480Z,103015.84
2023-02-14T02:53:09.102Z,103010.63
2023-02-14T02:54:17.291Z,103008.88
2023-02-14T02:55:26.678Z,103008.00
2023-02-14T02:56:47.427Z,103009.81
2023-02-14T02:57:51.395Z,103010.66
2023-02-14T02:58:58.103Z,103016.00
2023-02-14T03:00:02.265Z,103000.22
2023-02-14T03:01:11.424Z,103002.84
2023-02-14T03:02:18.407Z,103002.84
2023-02-14T03:03:44.923Z,103003.72
2023-02-14T03:04:54.641Z,103005.47
2023-02-14T03:05:58.944Z,103009.91
2023-02-14T03:07:22.817Z,103003.75
2023-02-14T03:08:25.404Z,103003.81
2023-02-14T03:09:53.171Z,103002.94
2023-02-14T03:10:55.989Z,103005.56
2023-02-14T03:12:12.482Z,103010.00
2023-02-14T03:13:26.570Z,103014.41
2023-02-14T03:14:34.380Z,103014.41
2023-02-14T03:15:52.733Z,103008.28
2023-02-14T03:17:04.833Z,103012.69
2023-02-14T03:18:13.994Z,103017.97
2023-02-14T03:19:34.382Z,103008.31
2023-02-14T03:20:47.587Z,103012.78
2023-02-14T03:21:56.565Z,103009.22
2023-02-14T03:23:09.643Z,103012.78
2023-02-14T03:24:18.868Z,103006.63
2023-02-14T03:25:40.363Z,103022.47
2023-02-14T03:26:48.417Z,103018.97
2023-02-14T03:27:55.819Z,103011.94
2023-02-14T03:29:05.999Z,103019.88
2023-02-14T03:30:16.146Z,103019.88
2023-02-14T03:31:23.688Z,103019.88
2023-02-14T03:32:35.352Z,103017.31
2023-02-14T03:33:46.596Z,103015.56
2023-02-14T03:34:56.288Z,103019.97
2023-02-14T03:36:03.443Z,103020.88
2023-02-14T03:37:12.296Z,103021.78
2023-02-14T03:38:21.902Z,103026.19
2023-02-14T03:39:28.928Z,103020.91
2023-02-14T03:40:36.215Z,103025.31
2023-02-14T03:41:43.278Z,103028.88
2023-02-14T03:42:51.460Z,103021.88
2023-02-14T03:43:57.147Z,103025.41
2023-02-14T03:45:03.312Z,103028.13
2023-02-14T03:46:10.295Z,103024.53
2023-02-14T03:47:15.494Z,103027.25
2023-02-14T03:48:20.013Z,103019.34
2023-02-14T03:49:27.463Z,103018.50
2023-02-14T03:50:31.426Z,103025.50
2023-02-14T03:51:36.742Z,103021.13
2023-02-14T03:54:59.245Z,103024.72
2023-02-14T03:56:04.753Z,103023.88
2023-02-14T03:57:15.846Z,103021.22
2023-02-14T03:58:25.365Z,103021.28
2023-02-14T03:59:28.703Z,103026.56
2023-02-14T04:00:33.944Z,103018.66
2023-02-14T04:01:42.530Z,103023.94
2023-02-14T04:02:49.253Z,103019.56
2023-02-14T04:03:55.423Z,103012.53
2023-02-14T04:05:01.288Z,103016.94
2023-02-14T04:06:06.431Z,103012.59
2023-02-14T04:07:09.935Z,103017.00
2023-02-14T04:08:12.640Z,103019.63
2023-02-14T04:09:14.314Z,103017.03
2023-02-14T04:10:19.234Z,103017.91
2023-02-14T04:11:24.022Z,103015.31
2023-02-14T04:12:37.768Z,103016.22
2023-02-14T04:13:39.801Z,103018.84
2023-02-14T04:14:42.425Z,103013.56
2023-02-14T04:15:44.388Z,103011.84
2023-02-14T04:17:06.552Z,103017.13
2023-02-14T04:18:27.478Z,103017.13
2023-02-14T04:19:30.010Z,103017.13
2023-02-14T04:20:31.622Z,103014.53
2023-02-14T04:21:34.133Z,103015.44
2023-02-14T04:22:35.664Z,103011.94
2023-02-14T04:23:38.557Z,103013.69
2023-02-14T04:24:40.604Z,103013.75
2023-02-14T04:25:45.578Z,103009.34
2023-02-14T04:26:54.060Z,103006.75
2023-02-14T04:27:56.670Z,103010.25
2023-02-14T04:28:58.275Z,103011.13
2023-02-14T04:30:00.876Z,103010.28
2023-02-14T04:31:04.094Z,103005.94
2023-02-14T04:32:08.996Z,103011.22
2023-02-14T04:33:10.725Z,103007.69
2023-02-14T04:34:13.589Z,103009.47
2023-02-14T04:35:15.623Z,103006.81
2023-02-14T04:36:18.172Z,103003.38
2023-02-14T04:37:20.680Z,103008.66
2023-02-14T04:38:23.211Z,103009.56
2023-02-14T04:39:24.916Z,103012.19
2023-02-14T04:40:27.651Z,103013.09
2023-02-14T04:41:40.640Z,103000.84
2023-02-14T04:42:43.194Z,103005.25
2023-02-14T04:43:44.767Z,103005.25
2023-02-14T04:44:47.293Z,102998.28
2023-02-14T04:45:48.944Z,103003.56
2023-02-14T04:46:51.939Z,103001.81
2023-02-14T04:47:53.512Z,102999.22
2023-02-14T04:48:55.984Z,102997.50
2023-02-14T04:49:57.873Z,102993.13
2023-02-14T04:51:00.669Z,102994.88
2023-02-14T04:52:03.559Z,102987.88
2023-02-14T04:53:07.616Z,102994.94
2023-02-14T04:54:09.500Z,102993.22
2023-02-14T04:55:12.139Z,102986.16
2023-02-14T04:56:13.653Z,102990.59
2023-02-14T04:57:17.569Z,103000.25
2023-02-14T04:58:19.076Z,102987.97
2023-02-14T04:59:24.684Z,102995.00
2023-02-14T05:00:27.655Z,102988.91
2023-02-14T05:01:29.340Z,102987.16
2023-02-14T05:02:41.826Z,102987.97
2023-02-14T05:03:46.582Z,102990.66
2023-02-14T05:04:52.405Z,102985.41
2023-02-14T05:05:53.984Z,102989.78
2023-02-14T05:06:56.463Z,102991.63
2023-02-14T05:07:58.015Z,102984.59
2023-02-14T05:09:00.835Z,102985.50
2023-02-14T05:10:02.608Z,102982.88
2023-02-14T05:11:05.484Z,102981.13
2023-02-14T05:12:07.254Z,102988.13
2023-02-14T05:13:11.158Z,102982.00
2023-02-14T05:14:13.786Z,102987.28
2023-02-14T05:15:16.512Z,102984.69
2023-02-14T05:16:18.089Z,102979.41
2023-02-14T05:17:20.686Z,102982.94
2023-02-14T05:18:22.245Z,102978.56
2023-02-14T05:19:34.864Z,102975.03
2023-02-14T05:20:36.632Z,102972.47
2023-02-14T05:21:39.330Z,102974.22
2023-02-14T05:22:40.863Z,102971.59
2023-02-14T05:23:44.438Z,102974.22
2023-02-14T05:24:46.924Z,102968.09
2023-02-14T05:25:49.246Z,102965.47
2023-02-14T05:26:51.777Z,102967.25
2023-02-14T05:27:53.359Z,102970.75
2023-02-14T05:28:57.809Z,102969.94
2023-02-14T05:29:59.484Z,102966.41
2023-02-14T05:31:02.460Z,102967.31
2023-02-14T05:32:04.548Z,102977.84
2023-02-14T05:33:07.444Z,102967.31
2023-02-14T05:34:09.253Z,102970.84
2023-02-14T05:35:11.834Z,102961.22
2023-02-14T05:36:13.568Z,102967.34
2023-02-14T05:37:16.079Z,102962.13
2023-02-14T05:38:17.803Z,102963.88
2023-02-14T05:39:20.740Z,102974.41
2023-02-14T05:40:26.945Z,102970.94
2023-02-14T05:41:29.577Z,102963.91
2023-02-14T05:42:31.326Z,102963.91
2023-02-14T05:43:33.868Z,102965.75
2023-02-14T05:44:36.744Z,102971.88
2023-02-14T05:45:39.498Z,102970.16
2023-02-14T05:46:41.098Z,102966.63
2023-02-14T05:47:43.587Z,102964.94
2023-02-14T05:48:45.770Z,102968.47
2023-02-14T05:49:48.323Z,102964.94
2023-02-14T05:50:49.910Z,102957.09
2023-02-14T05:51:52.449Z,102964.09
2023-02-14T05:52:54.090Z,102968.56
2023-02-14T05:53:57.733Z,102966.78
2023-02-14T05:54:59.565Z,102971.19
2023-02-14T05:56:04.726Z,102958.91
2023-02-14T05:57:07.451Z,102969.44
2023-02-14T05:58:09.583Z,102963.38
2023-02-14T05:59:20.183Z,102969.44
2023-02-14T06:00:27.446Z,102960.72
2023-02-14T06:01:30.222Z,102964.25
2023-02-14T06:02:32.112Z,102965.16
2023-02-14T06:03:34.630Z,102972.22
2023-02-14T06:04:37.419Z,102972.22
2023-02-14T06:05:39.019Z,102960.81
2023-02-14T06:06:41.956Z,102966.09
2023-02-14T06:07:48.727Z,102959.94
2023-02-14T06:08:51.235Z,102962.56
2023-02-14T06:09:52.919Z,102960.81
2023-02-14T06:10:55.656Z,102966.09
2023-02-14T06:11:58.835Z,102964.34
2023-02-14T06:13:00.916Z,102969.63
2023-02-14T06:14:03.404Z,102967.03
2023-02-14T06:15:05.784Z,102966.16
2023-02-14T06:16:11.792Z,102973.19
2023-02-14T06:17:13.498Z,102972.34
2023-02-14T06:18:16.236Z,102964.44
2023-02-14T06:19:17.835Z,102967.03
2023-02-14T06:20:21.236Z,102967.06
2023-02-14T06:21:23.751Z,102969.69
2023-02-14T06:22:25.362Z,102968.88
2023-02-14T06:23:27.851Z,102974.97
2023-02-14T06:24:29.466Z,102975.06
2023-02-14T06:25:32.476Z,102982.06
2023-02-14T06:26:35.941Z,102975.06
2023-02-14T06:27:38.574Z,102981.22
2023-02-14T06:28:41.236Z,102982.16
2023-02-14T06:29:42.761Z,102982.16
2023-02-14T06:30:47.158Z,102985.69
2023-02-14T06:31:50.191Z,102985.69
2023-02-14T06:32:52.839Z,102985.69
2023-02-14T06:33:56.297Z,102983.94
2023-02-14T06:34:57.850Z,102988.34
2023-02-14T06:36:00.392Z,102983.13
2023-02-14T06:37:01.960Z,102984.00
2023-02-14T06:38:04.545Z,102991.03
2023-02-14T06:39:06.068Z,102989.28
2023-02-14T06:40:09.791Z,102998.09
2023-02-14T06:41:11.904Z,102996.38
2023-02-14T06:42:14.741Z,102992.81
2023-02-14T06:43:27.287Z,102994.56
2023-02-14T06:44:30.695Z,102993.75
2023-02-14T06:45:33.316Z,102999.00
2023-02-14T06:46:34.968Z,102992.00
2023-02-14T06:47:39.221Z,102993.75
2023-02-14T06:48:41.802Z,103002.53
2023-02-14T06:49:43.345Z,103001.66
2023-02-14T06:50:47.494Z,103002.53
2023-02-14T06:51:49.987Z,102998.09
2023-02-14T06:52:52.481Z,103001.59
2023-02-14T06:53:54.218Z,102998.97
2023-02-14T06:54:56.788Z,102991.06
2023-02-14T06:55:58.425Z,102999.81
2023-02-14T06:57:01.177Z,102994.56
2023-02-14T06:58:13.800Z,102984.00
2023-02-14T06:59:15.554Z,102993.69
2023-02-14T07:00:19.304Z,102991.09
2023-02-14T07:01:30.083Z,102993.69
2023-02-14T07:02:33.727Z,102994.56
2023-02-14T07:03:37.616Z,102994.56
2023-02-14T07:04:40.205Z,102991.91
2023-02-14T07:05:41.786Z,102989.28
2023-02-14T07:06:44.427Z,102992.81
2023-02-14T07:07:47.021Z,102991.03
2023-02-14T07:08:48.701Z,102993.69
2023-02-14T07:09:51.578Z,102992.78
2023-02-14T07:10:56.389Z,102985.75
2023-02-14T07:11:58.926Z,102992.75
2023-02-14T07:13:00.966Z,102993.66
2023-02-14T07:14:03.484Z,102998.88
2023-02-14T07:15:05.637Z,102989.22
2023-02-14T07:16:08.263Z,102990.97
2023-02-14T07:17:10.800Z,102992.75
2023-02-14T07:18:13.031Z,102990.94
2023-02-14T07:19:18.200Z,102993.59
2023-02-14T07:20:21.744Z,102996.22
2023-02-14T07:21:24.219Z,102990.94
2023-02-14T07:22:26.779Z,102987.41
2023-02-14T07:23:28.353Z,102988.25
2023-02-14T07:24:31.970Z,102992.63
2023-02-14T07:25:33.518Z,102989.13
2023-02-14T07:26:36.049Z,102983.84
2023-02-14T07:27:38.147Z,102988.22
2023-02-14T07:28:44.908Z,102990.00
2023-02-14T07:29:47.784Z,102989.03
2023-02-14T07:30:50.398Z,102990.88
2023-02-14T07:31:52.177Z,102987.34
2023-02-14T07:32:55.012Z,102996.06
2023-02-14T07:34:00.674Z,102992.53
2023-02-14T07:35:06.288Z,102997.78
2023-02-14T07:36:08.920Z,102988.13
2023-02-14T07:37:11.522Z,102994.22
2023-02-14T07:38:13.139Z,102989.81
2023-02-14T07:39:15.685Z,102993.34
2023-02-14T07:40:29.785Z,102995.06
2023-02-14T07:41:31.363Z,102991.50
2023-02-14T07:42:33.945Z,102993.25
2023-02-14T07:43:35.571Z,102988.84
2023-02-14T07:44:39.127Z,102995.88
2023-02-14T07:45:40.718Z,102987.94
2023-02-14T07:46:43.295Z,102987.94
2023-02-14T07:47:44.902Z,102990.53
2023-02-14T07:48:48.725Z,102997.53
2023-02-14T07:49:50.281Z,102994.00
2023-02-14T07:50:56.484Z,102990.44
2023-02-14T07:51:58.401Z,102997.47
2023-02-14T07:53:00.980Z,102995.63
2023-02-14T07:54:03.783Z,102983.28
2023-02-14T07:55:05.753Z,102999.03
2023-02-14T07:56:08.250Z,102998.16
2023-02-14T07:57:09.893Z,102991.06
2023-02-14T07:58:12.380Z,102993.69
2023-02-14T07:59:14.941Z,102992.81
2023-02-14T08:00:17.397Z,102992.78
2023-02-14T08:01:22.318Z,102992.72
2023-02-14T08:02:24.884Z,102998.84
2023-02-14T08:03:26.404Z,102993.59
2023-02-14T08:04:29.155Z,102991.75
2023-02-14T08:05:33.465Z,102997.91
2023-02-14T08:06:36.685Z,102995.25
2023-02-14T08:07:39.351Z,102997.81
2023-02-14T08:08:41.834Z,102992.53
2023-02-14T08:09:44.330Z,102994.28
2023-02-14T08:10:46.822Z,102999.53
2023-02-14T08:12:06.913Z,102991.56
2023-02-14T08:13:09.415Z,102998.50
2023-02-14T08:14:11.496Z,102994.97
2023-02-14T08:15:39.861Z,102992.31
2023-02-14T08:16:42.550Z,102994.88
2023-02-14T08:17:44.662Z,102990.50
2023-02-14T08:18:47.159Z,102986.09
2023-02-14T08:19:49.778Z,102993.06
2023-02-14T08:20:54.196Z,102995.69
2023-02-14T08:21:58.119Z,102988.63
2023-02-14T08:22:59.717Z,102991.22
2023-02-14T08:24:02.211Z,102992.91
2023-02-14T08:25:13.143Z,102993.69
2023-02-14T08:26:15.742Z,102990.00
2023-02-14T08:27:17.287Z,102999.56
2023-02-14T08:28:23.787Z,102996.00
2023-02-14T08:29:26.915Z,102996.88
2023-02-14T08:30:29.193Z,103001.19
2023-02-14T08:31:35.973Z,103002.06
2023-02-14T08:32:38.126Z,102995.88
2023-02-14T08:33:40.726Z,102993.19
2023-02-14T08:34:42.301Z,102995.81
2023-02-14T08:35:44.881Z,102995.78
2023-02-14T08:36:47.404Z,102994.03
2023-02-14T08:37:51.320Z,102993.16
2023-02-14T08:38:55.121Z,103001.88
2023-02-14T08:39:57.658Z,102995.75
2023-02-14T08:41:06.640Z,103004.50
2023-02-14T08:42:10.736Z,102999.25
2023-02-14T08:43:13.848Z,102997.44
2023-02-14T08:44:16.650Z,102997.44
2023-02-14T08:45:18.616Z,102993.06
2023-02-14T08:46:21.162Z,103000.94
2023-02-14T08:47:23.743Z,103002.66
2023-02-14T08:48:29.188Z,103000.88
2023-02-14T08:49:31.132Z,103000.84
2023-02-14T08:50:34.755Z,102999.03
2023-02-14T08:51:37.301Z,103001.63
2023-02-14T08:52:40.211Z,102996.28
2023-02-14T08:53:46.125Z,103001.53
2023-02-14T08:54:47.664Z,102993.56
2023-02-14T08:55:50.301Z,102997.03
2023-02-14T08:56:52.930Z,102999.63
2023-02-14T08:57:56.826Z,102999.59
2023-02-14T08:58:59.487Z,103003.94
2023-02-14T09:00:02.112Z,102997.75
2023-02-14T09:01:10.524Z,103005.66
2023-02-14T09:02:13.480Z,103004.72
2023-02-14T09:03:15.982Z,103000.28
2023-02-14T09:04:18.513Z,103001.97
2023-02-14T09:05:23.230Z,103005.44
2023-02-14T09:06:26.177Z,103003.69
2023-02-14T09:07:27.888Z,102998.41
2023-02-14T09:08:31.145Z,103000.97
2023-02-14T09:09:34.285Z,102999.16
2023-02-14T09:10:37.600Z,102996.47
2023-02-14T09:11:39.186Z,102999.91
2023-02-14T09:12:42.964Z,102995.50
2023-02-14T09:13:47.514Z,102988.41
2023-02-14T09:14:50.528Z,102988.34
2023-02-14T09:15:53.110Z,102989.19
2023-02-14T09:16:55.735Z,102985.63
2023-02-14T09:17:58.400Z,102985.59
2023-02-14T09:18:59.987Z,102988.16
2023-02-14T09:20:02.507Z,102983.72
2023-02-14T09:21:09.021Z,102987.16
2023-02-14T09:22:12.402Z,102986.25
2023-02-14T09:23:24.888Z,102982.69
2023-02-14T09:24:27.588Z,102980.03
2023-02-14T09:25:32.397Z,102980.81
2023-02-14T09:26:36.803Z,102983.34
2023-02-14T09:27:40.098Z,102976.28
2023-02-14T09:28:41.908Z,102976.28
2023-02-14T09:29:44.477Z,102977.13
2023-02-14T09:30:47.034Z,102969.22
2023-02-14T09:31:48.736Z,102971.75
2023-02-14T09:32:53.136Z,102976.13
2023-02-14T09:33:54.795Z,102976.97
2023-02-14T09:34:57.350Z,102970.81
2023-02-14T09:36:14.136Z,102970.78
2023-02-14T09:37:16.172Z,102972.56
2023-02-14T09:38:19.039Z,102971.63
2023-02-14T09:39:20.602Z,102974.22
2023-02-14T09:40:25.360Z,102975.03
2023-02-14T09:42:02.283Z,102968.84
2023-02-14T09:46:03.581Z,102959.91
2023-02-14T09:47:12.772Z,102964.22
2023-02-14T09:48:28.254Z,102965.94
2023-02-14T09:49:32.950Z,102969.41
2023-02-14T09:50:43.225Z,102970.19
2023-02-14T09:51:48.854Z,102963.13
2023-02-14T09:52:54.488Z,102965.69
2023-02-14T09:54:03.449Z,102959.50
2023-02-14T09:55:13.588Z,102955.00
2023-02-14T09:56:22.099Z,102966.41
2023-02-14T09:57:38.530Z,102959.28
2023-02-14T09:58:46.931Z,102958.38
2023-02-14T09:59:54.578Z,102959.16
2023-02-14T10:01:06.136Z,102959.13
2023-02-14T10:02:31.713Z,102961.66
2023-02-14T10:03:47.549Z,102958.06
2023-02-14T10:04:58.696Z,102958.84
2023-02-14T10:06:08.204Z,102961.44
2023-02-14T10:07:22.743Z,102964.06
2023-02-14T10:08:41.647Z,102958.72
2023-02-14T10:09:57.041Z,102957.78
2023-02-14T10:11:05.420Z,102960.38
2023-02-14T10:12:15.296Z,102962.09
2023-02-14T10:13:24.160Z,102955.91
2023-02-14T10:14:30.564Z,102958.44
2023-02-14T10:15:38.073Z,102965.44
2023-02-14T10:16:45.248Z,102952.16
2023-02-14T10:17:50.738Z,102958.22
2023-02-14T10:18:57.493Z,102958.13
2023-02-14T10:20:03.701Z,102956.28
2023-02-14T10:21:22.568Z,102953.59
2023-02-14T10:22:34.161Z,102957.91
2023-02-14T10:23:41.991Z,102954.34
2023-02-14T10:24:49.439Z,102954.22
2023-02-14T10:25:58.016Z,102957.69
2023-02-14T10:27:11.128Z,102957.63
2023-02-14T10:28:16.947Z,102953.13
2023-02-14T10:29:21.957Z,102948.72
2023-02-14T10:30:24.580Z,102949.53
2023-02-14T10:31:32.697Z,102950.34
2023-02-14T10:32:41.589Z,102948.50
2023-02-14T10:33:50.806Z,102943.09
2023-02-14T10:34:58.202Z,102950.97
2023-02-14T10:36:05.465Z,102950.91
2023-02-14T10:37:26.219Z,102948.22
2023-02-14T10:38:40.662Z,102953.41
2023-02-14T10:40:02.471Z,102942.78
2023-02-14T10:41:32.350Z,102944.47
2023-02-14T10:42:46.204Z,102946.22
2023-02-14T10:44:00.619Z,102943.50
2023-02-14T10:45:16.823Z,102936.44
2023-02-14T10:46:31.516Z,102931.97
2023-02-14T10:47:43.023Z,102936.28
2023-02-14T10:48:56.210Z,102920.31
2023-02-14T10:50:11.037Z,102927.44
2023-02-14T10:51:17.595Z,102928.19
2023-02-14T10:52:27.627Z,102928.97
2023-02-14T10:53:42.723Z,102924.41
2023-02-14T10:54:54.450Z,102925.09
2023-02-14T10:56:03.647Z,102922.41
2023-02-14T10:57:13.816Z,102927.56
2023-02-14T10:58:20.459Z,102918.72
2023-02-14T10:59:31.348Z,102917.75
2023-02-14T11:00:38.701Z,102925.59
2023-02-14T11:01:41.567Z,102918.50
2023-02-14T11:02:48.512Z,102918.38
2023-02-14T11:03:56.122Z,102913.00
2023-02-14T11:04:59.835Z,102913.84
2023-02-14T11:06:02.699Z,102912.88
2023-02-14T11:07:05.207Z,102912.75
2023-02-14T11:08:15.556Z,102903.84
2023-02-14T11:09:19.151Z,102907.28
2023-02-14T11:10:35.589Z,102905.44
2023-02-14T11:11:42.171Z,102902.69
2023-02-14T11:12:48.618Z,102908.78
2023-02-14T11:13:51.852Z,102905.13
2023-02-14T11:15:10.759Z,102903.22
2023-02-14T11:16:29.967Z,102903.19
2023-02-14T11:17:34.858Z,102906.66
2023-02-14T11:18:39.794Z,102901.28
2023-02-14T11:19:42.292Z,102910.06
2023-02-14T11:20:44.820Z,102896.81
2023-02-14T11:21:50.693Z,102896.69
2023-02-14T11:22:52.401Z,102901.97
2023-02-14T11:23:54.980Z,102901.03
2023-02-14T11:25:04.797Z,102901.88
2023-02-14T11:26:22.635Z,102899.16
2023-02-14T11:27:27.374Z,102895.59
2023-02-14T11:28:36.612Z,102899.13
2023-02-14T11:29:45.076Z,102898.13
2023-02-14T11:30:49.746Z,102894.47
2023-02-14T11:31:54.615Z,102894.44
2023-02-14T11:32:57.401Z,102894.34
2023-02-14T11:34:02.936Z,102891.59
2023-02-14T11:35:17.800Z,102888.91
2023-02-14T11:36:20.499Z,102887.03
2023-02-14T11:37:29.205Z,102882.56
2023-02-14T11:38:35.862Z,102885.13
2023-02-14T11:39:37.518Z,102881.47
2023-02-14T11:40:41.000Z,102881.47
2023-02-14T11:41:49.898Z,102876.13
2023-02-14T11:43:12.843Z,102877.84
2023-02-14T11:44:22.599Z,102875.13
2023-02-14T11:50:10.860Z,102873.41
2023-02-14T11:51:14.672Z,102867.19
2023-02-14T11:52:19.523Z,102871.47
2023-02-14T11:53:25.832Z,102863.47
2023-02-14T11:54:32.974Z,102866.00
2023-02-14T11:55:35.602Z,102858.81
2023-02-14T11:56:50.512Z,102863.22
2023-02-14T11:57:53.632Z,102858.69
2023-02-14T11:58:58.010Z,102857.72
2023-02-14T12:00:03.088Z,102853.25
2023-02-14T12:01:07.625Z,102850.56
2023-02-14T12:02:33.484Z,102849.69
2023-02-14T12:03:40.956Z,102847.81
2023-02-14T12:04:47.068Z,102847.81
2023-02-14T12:05:53.887Z,102845.13
2023-02-14T12:06:56.010Z,102853.06
2023-02-14T12:08:00.565Z,102850.38
2023-02-14T12:09:12.802Z,102852.88
2023-02-14T12:10:25.268Z,102838.69
2023-02-14T12:11:27.253Z,102843.00
2023-02-14T12:12:30.142Z,102846.44
2023-02-14T12:13:33.192Z,102850.75
2023-02-14T12:14:36.641Z,102848.03
2023-02-14T12:15:41.139Z,102843.59
2023-02-14T12:16:54.951Z,102840.00
2023-02-14T12:18:06.576Z,102834.69
2023-02-14T12:19:17.059Z,102835.56
2023-02-14T12:20:27.057Z,102836.44
2023-02-14T12:21:41.751Z,102823.94
2023-02-14T12:22:50.744Z,102826.53
2023-02-14T12:24:03.317Z,102824.69
2023-02-14T12:25:14.700Z,102816.59
2023-02-14T12:26:28.514Z,102812.94
2023-02-14T12:27:35.635Z,102816.38
2023-02-14T12:28:43.977Z,102808.28
2023-02-14T12:29:51.838Z,102809.06
2023-02-14T12:30:54.667Z,102808.00
2023-02-14T12:32:02.029Z,102810.50
2023-02-14T12:33:17.410Z,102807.81
2023-02-14T12:34:20.271Z,102805.06
2023-02-14T12:35:50.349Z,102806.78
2023-02-14T12:37:09.033Z,102805.94
2023-02-14T12:38:24.173Z,102803.22
2023-02-14T12:39:36.473Z,102798.84
2023-02-14T12:40:50.604Z,102804.00
2023-02-14T12:42:07.474Z,102799.47
2023-02-14T12:43:50.512Z,102790.59
2023-02-14T12:45:03.409Z,102786.16
2023-02-14T12:46:22.182Z,102794.97